Time;durP1;ratioP1;P1;durP2;ratioP2;P2;SDS_P1;SDS_P2;PMS_P1;PMS_P2;Temp;Humidity;BMP_temperature;BMP_pressure;BME280_temperature;BME280_humidity;BME280_pressure;Samples;Min_cycle;Max_cycle;Signal;HPM_P1;HPM_P2
2022/04/07 00:01:14;;;;;;;0.40;0.20;;;10.50;99.90;;;;;;5010869;28;20377;-80
2022/04/07 00:03:40;;;;;;;0.40;0.20;;;10.50;99.90;;;;;;5010092;28;20389;-78
2022/04/07 00:06:09;;;;;;;0.40;0.20;;;10.40;99.90;;;;;;5010874;28;20472;-77
2022/04/07 00:08:36;;;;;;;0.40;0.30;;;10.50;99.90;;;;;;5012174;28;20450;-81
2022/04/07 00:11:02;;;;;;;0.40;0.20;;;10.40;99.90;;;;;;5005789;28;20812;-76
2022/04/07 00:13:27;;;;;;;0.40;0.20;;;10.30;99.90;;;;;;5014817;28;20428;-76
2022/04/07 00:15:56;;;;;;;0.40;0.20;;;10.30;99.90;;;;;;5014172;28;20441;-75
2022/04/07 00:18:22;;;;;;;0.40;0.20;;;10.30;99.90;;;;;;5014342;28;20858;-76
2022/04/07 00:20:48;;;;;;;0.40;0.25;;;10.30;99.90;;;;;;5013488;28;20389;-75
2022/04/07 00:23:14;;;;;;;0.40;0.20;;;10.30;99.90;;;;;;5014598;28;20387;-77
2022/04/07 00:25:40;;;;;;;0.40;0.20;;;10.20;99.90;;;;;;5014776;28;20387;-78
2022/04/07 00:28:05;;;;;;;0.40;0.20;;;10.20;99.90;;;;;;5013593;28;20408;-75
2022/04/07 00:30:31;;;;;;;0.40;0.20;;;10.20;99.90;;;;;;5014339;28;20408;-75
2022/04/07 00:32:58;;;;;;;0.40;0.20;;;10.20;99.90;;;;;;5013687;28;20479;-76
2022/04/07 00:35:25;;;;;;;0.40;0.20;;;10.20;99.90;;;;;;5014332;28;20488;-76
2022/04/07 00:37:50;;;;;;;0.40;0.20;;;10.20;99.90;;;;;;5013675;28;20418;-76
2022/04/07 00:40:18;;;;;;;0.40;0.20;;;10.20;99.90;;;;;;5013617;28;20495;-75
2022/04/07 00:42:48;;;;;;;0.40;0.20;;;10.10;99.90;;;;;;5029532;28;20397;-75
2022/04/07 00:45:18;;;;;;;0.40;0.20;;;10.20;99.90;;;;;;5013425;28;20416;-79
2022/04/07 00:47:45;;;;;;;0.40;0.30;;;10.20;99.90;;;;;;5014258;28;20480;-78
2022/04/07 00:50:12;;;;;;;0.80;0.80;;;10.20;99.90;;;;;;5013327;28;20463;-76
2022/04/07 00:52:48;;;;;;;0.47;0.47;;;10.20;99.90;;;;;;5014250;28;20393;-75
2022/04/07 00:55:17;;;;;;;0.40;0.20;;;10.30;99.90;;;;;;5013035;28;20420;-77
2022/04/07 00:57:44;;;;;;;0.40;0.20;;;10.20;99.90;;;;;;5013851;28;20442;-75
2022/04/07 01:00:12;;;;;;;0.40;0.20;;;10.20;99.90;;;;;;5013672;28;20757;-76
2022/04/07 01:02:38;;;;;;;0.40;0.20;;;10.30;99.90;;;;;;5013715;28;20393;-75
2022/04/07 01:05:05;;;;;;;0.40;0.20;;;10.30;99.90;;;;;;5013874;28;20388;-75
2022/04/07 01:07:32;;;;;;;0.40;0.20;;;10.30;99.90;;;;;;5012703;28;20531;-75
2022/04/07 01:09:59;;;;;;;0.40;0.20;;;10.20;99.90;;;;;;5036048;28;20473;-74
2022/04/07 01:12:25;;;;;;;0.40;0.30;;;10.20;99.90;;;;;;5032363;28;20396;-75
2022/04/07 01:14:59;;;;;;;0.40;0.20;;;10.20;99.90;;;;;;5033549;28;20709;-75
2022/04/07 01:17:26;;;;;;;0.40;0.20;;;10.20;99.90;;;;;;5031288;28;20388;-78
2022/04/07 01:19:52;;;;;;;0.40;0.20;;;10.20;99.90;;;;;;5032452;28;20398;-76
2022/04/07 01:22:19;;;;;;;0.40;0.20;;;10.20;99.90;;;;;;5033651;28;20387;-75
2022/04/07 01:24:47;;;;;;;0.70;0.70;;;10.30;99.90;;;;;;5032120;28;20474;-80
2022/04/07 01:27:14;;;;;;;0.40;0.30;;;10.30;99.90;;;;;;5031882;28;20397;-79
2022/04/07 01:29:40;;;;;;;0.40;0.22;;;10.30;99.90;;;;;;5032337;28;20411;-76
2022/04/07 01:32:11;;;;;;;0.40;0.20;;;10.20;99.90;;;;;;5032910;28;20422;-76
2022/04/07 01:34:38;;;;;;;0.40;0.20;;;10.20;99.90;;;;;;5031245;28;20387;-78
2022/04/07 01:37:05;;;;;;;0.40;0.20;;;10.20;99.90;;;;;;5032596;28;20749;-83
2022/04/07 01:39:31;;;;;;;0.40;0.20;;;10.30;99.90;;;;;;5032883;28;20391;-77
2022/04/07 01:41:57;;;;;;;0.40;0.20;;;10.30;99.90;;;;;;5047027;28;20394;-76
2022/04/07 01:44:24;;;;;;;0.40;0.20;;;10.30;99.90;;;;;;5031545;28;20387;-79
2022/04/07 01:46:51;;;;;;;0.40;0.20;;;10.30;99.90;;;;;;5030557;28;20729;-77
2022/04/07 01:49:19;;;;;;;0.40;0.20;;;10.20;99.90;;;;;;5031271;28;20832;-74
2022/04/07 01:51:46;;;;;;;0.40;0.20;;;10.20;99.90;;;;;;5032621;28;20434;-77
2022/04/07 01:54:14;;;;;;;0.40;0.30;;;10.10;99.90;;;;;;5030172;28;20420;-76
2022/04/07 01:56:42;;;;;;;0.40;0.20;;;10.10;99.90;;;;;;5031110;28;20432;-75
2022/04/07 01:59:09;;;;;;;0.40;0.20;;;10.20;99.90;;;;;;5030430;28;20457;-75
2022/04/07 02:01:36;;;;;;;0.40;0.20;;;10.20;99.90;;;;;;5031880;28;20907;-76
2022/04/07 02:04:02;;;;;;;0.40;0.20;;;10.20;99.90;;;;;;5030217;28;20892;-75
2022/04/07 02:06:28;;;;;;;0.40;0.20;;;10.10;99.90;;;;;;5031926;28;20399;-75
2022/04/07 02:08:54;;;;;;;0.40;0.20;;;10.20;99.90;;;;;;5032292;28;20422;-76
2022/04/07 02:11:23;;;;;;;0.40;0.20;;;10.30;99.90;;;;;;5000698;28;20396;-77
2022/04/07 02:13:49;;;;;;;0.60;0.60;;;10.30;99.90;;;;;;5007068;28;20783;-73
2022/04/07 02:16:16;;;;;;;0.40;0.20;;;10.30;99.90;;;;;;4991991;28;20406;-75
2022/04/07 02:18:42;;;;;;;0.40;0.20;;;10.20;99.90;;;;;;5000115;28;20388;-74
2022/04/07 02:21:08;;;;;;;0.40;0.20;;;10.30;99.90;;;;;;5027324;28;20400;-74
2022/04/07 02:23:41;;;;;;;0.40;0.30;;;10.30;99.90;;;;;;5026904;28;20389;-74
2022/04/07 02:26:17;;;;;;;0.40;0.30;;;10.30;99.90;;;;;;5012704;28;20475;-75
2022/04/07 02:28:43;;;;;;;0.40;0.20;;;10.30;99.90;;;;;;5012028;28;20404;-74
2022/04/07 02:31:10;;;;;;;0.40;0.20;;;10.30;99.90;;;;;;5011710;28;20393;-74
2022/04/07 02:33:37;;;;;;;0.40;0.20;;;10.40;99.90;;;;;;5026448;28;20853;-75
2022/04/07 02:36:04;;;;;;;0.40;0.20;;;10.40;99.90;;;;;;5011893;28;20873;-75
2022/04/07 02:38:30;;;;;;;0.40;0.30;;;10.40;99.90;;;;;;5010599;28;20408;-73
2022/04/07 02:40:56;;;;;;;0.40;0.20;;;10.30;99.90;;;;;;5003271;28;20784;-74
2022/04/07 02:43:22;;;;;;;0.40;0.20;;;10.30;99.90;;;;;;4992419;28;20382;-78
2022/04/07 02:45:48;;;;;;;0.40;0.20;;;10.30;99.90;;;;;;4991593;28;20386;-74
2022/04/07 02:48:13;;;;;;;0.40;0.20;;;10.30;99.90;;;;;;4992302;28;20389;-76
2022/04/07 02:50:39;;;;;;;0.40;0.20;;;10.20;99.90;;;;;;5006409;28;20414;-76
2022/04/07 02:53:05;;;;;;;0.40;0.20;;;10.20;99.90;;;;;;5006930;28;20399;-79
2022/04/07 02:55:30;;;;;;;0.40;0.20;;;10.30;99.90;;;;;;4991954;28;20441;-76
2022/04/07 02:57:59;;;;;;;0.40;0.20;;;10.30;99.90;;;;;;4991598;28;20394;-75
2022/04/07 03:00:25;;;;;;;0.40;0.20;;;10.30;99.90;;;;;;4992033;28;20386;-75
2022/04/07 03:02:51;;;;;;;0.40;0.20;;;10.30;99.90;;;;;;4991270;28;20416;-78
2022/04/07 03:05:17;;;;;;;0.40;0.20;;;10.40;99.90;;;;;;4992017;28;20525;-75
2022/04/07 03:07:43;;;;;;;0.40;0.20;;;10.40;99.90;;;;;;4990365;28;20508;-77
2022/04/07 03:10:09;;;;;;;0.40;0.20;;;10.40;99.90;;;;;;5008171;28;20875;-75
2022/04/07 03:12:35;;;;;;;0.40;0.30;;;10.40;99.90;;;;;;5030852;28;20775;-77
2022/04/07 03:15:01;;;;;;;0.40;0.20;;;10.40;99.90;;;;;;5030054;28;20875;-74
2022/04/07 03:17:27;;;;;;;0.90;0.90;;;10.40;99.90;;;;;;5029687;28;20399;-73
2022/04/07 03:19:53;;;;;;;0.40;0.20;;;10.50;99.90;;;;;;5030600;28;20384;-75
2022/04/07 03:22:19;;;;;;;0.40;0.30;;;10.50;99.90;;;;;;5030133;28;20375;-79
2022/04/07 03:24:45;;;;;;;0.40;0.20;;;10.50;99.90;;;;;;5030930;28;20875;-74
2022/04/07 03:27:12;;;;;;;0.40;0.20;;;10.50;99.90;;;;;;5029727;28;20783;-73
2022/04/07 03:29:38;;;;;;;0.40;0.20;;;10.60;99.90;;;;;;5029347;28;20411;-73
2022/04/07 03:32:04;;;;;;;0.40;0.20;;;10.60;99.90;;;;;;5030920;28;20387;-73
2022/04/07 03:34:31;;;;;;;0.40;0.20;;;10.60;99.90;;;;;;5030084;28;20547;-73
2022/04/07 03:36:57;;;;;;;0.40;0.20;;;10.50;99.90;;;;;;5030805;28;20410;-72
2022/04/07 03:39:23;;;;;;;0.40;0.20;;;10.50;99.90;;;;;;5030050;28;20463;-73
2022/04/07 03:41:48;;;;;;;0.40;0.20;;;10.50;99.90;;;;;;5030310;28;20380;-74
2022/04/07 03:44:14;;;;;;;0.40;0.20;;;10.60;99.90;;;;;;5030775;28;20379;-74
2022/04/07 03:46:40;;;;;;;0.40;0.20;;;10.60;99.90;;;;;;5030187;28;20450;-72
2022/04/07 03:49:05;;;;;;;0.40;0.20;;;10.60;99.90;;;;;;5030783;28;20501;-71
2022/04/07 03:51:31;;;;;;;0.40;0.20;;;10.60;99.90;;;;;;5030201;28;20372;-74
2022/04/07 03:53:57;;;;;;;0.40;0.20;;;10.60;99.90;;;;;;5030886;28;20383;-71
2022/04/07 03:56:23;;;;;;;0.40;0.20;;;10.60;99.90;;;;;;5030474;28;20828;-74
2022/04/07 03:58:48;;;;;;;0.40;0.20;;;10.60;99.90;;;;;;5012992;28;20730;-71
2022/04/07 04:01:14;;;;;;;0.40;0.20;;;10.60;99.90;;;;;;5009827;28;20385;-71
2022/04/07 04:03:40;;;;;;;0.40;0.20;;;10.60;99.90;;;;;;5009912;28;20377;-71
2022/04/07 04:06:05;;;;;;;0.40;0.20;;;10.60;99.90;;;;;;5011160;28;20391;-71
2022/04/07 04:08:31;;;;;;;0.40;0.20;;;10.60;99.90;;;;;;5011010;28;20498;-71
2022/04/07 04:10:57;;;;;;;0.40;0.20;;;10.60;99.90;;;;;;5013883;28;20544;-72
2022/04/07 04:13:23;;;;;;;0.40;0.20;;;10.50;99.90;;;;;;5019770;28;20461;-73
2022/04/07 04:15:48;;;;;;;0.40;0.28;;;10.50;99.90;;;;;;4989870;28;20386;-76
2022/04/07 04:18:14;;;;;;;0.40;0.20;;;10.50;99.90;;;;;;4990337;28;20855;-73
2022/04/07 04:20:40;;;;;;;0.40;0.20;;;10.50;99.90;;;;;;5017236;28;20442;-71
2022/04/07 04:23:05;;;;;;;0.40;0.20;;;10.40;99.90;;;;;;5002881;28;20383;-73
2022/04/07 04:25:31;;;;;;;0.40;0.20;;;10.40;99.90;;;;;;5016229;28;20391;-72
2022/04/07 04:27:57;;;;;;;0.40;0.23;;;10.40;99.90;;;;;;5017930;28;20424;-76
2022/04/07 04:30:23;;;;;;;0.40;0.20;;;10.50;99.90;;;;;;5018537;28;20409;-73
2022/04/07 04:32:49;;;;;;;0.40;0.20;;;10.40;99.90;;;;;;5020165;28;20415;-72
2022/04/07 04:35:15;;;;;;;0.40;0.20;;;10.50;99.90;;;;;;5017122;28;20387;-72
2022/04/07 04:37:40;;;;;;;0.40;0.20;;;10.50;99.90;;;;;;5023989;28;20802;-74
2022/04/07 04:40:07;;;;;;;0.40;0.20;;;10.50;99.90;;;;;;5021564;28;20399;-74
2022/04/07 04:42:32;;;;;;;0.40;0.20;;;10.50;99.90;;;;;;5018782;28;20475;-71
2022/04/07 04:44:58;;;;;;;0.40;0.20;;;10.50;99.90;;;;;;5019316;28;20467;-71
2022/04/07 04:47:24;;;;;;;0.40;0.20;;;10.50;99.90;;;;;;5018760;28;20383;-74
2022/04/07 04:49:50;;;;;;;0.40;0.20;;;10.60;99.90;;;;;;5008811;28;20463;-72
2022/04/07 04:52:16;;;;;;;0.40;0.20;;;10.70;99.90;;;;;;5007694;28;20860;-72
2022/04/07 04:54:41;;;;;;;0.40;0.20;;;10.70;99.90;;;;;;4998173;28;20406;-72
2022/04/07 04:57:08;;;;;;;0.40;0.20;;;10.80;99.90;;;;;;5009802;28;20905;-72
2022/04/07 04:59:34;;;;;;;0.40;0.20;;;10.80;99.90;;;;;;5001671;28;20395;-71
2022/04/07 05:02:00;;;;;;;0.40;0.20;;;10.80;99.90;;;;;;5002158;28;20398;-72
2022/04/07 05:04:25;;;;;;;0.40;0.20;;;10.80;99.90;;;;;;5005846;28;20397;-75
2022/04/07 05:06:51;;;;;;;0.40;0.20;;;10.80;99.90;;;;;;5007969;28;20432;-73
2022/04/07 05:09:17;;;;;;;0.40;0.20;;;10.80;99.90;;;;;;5013320;28;20466;-71
2022/04/07 05:11:42;;;;;;;0.40;0.20;;;10.80;99.90;;;;;;5012829;28;20385;-72
2022/04/07 05:14:08;;;;;;;0.40;0.20;;;10.80;99.90;;;;;;5004398;28;20385;-73
2022/04/07 05:16:34;;;;;;;0.40;0.20;;;10.80;99.90;;;;;;5012899;28;20788;-71
2022/04/07 05:19:00;;;;;;;0.40;0.20;;;10.80;99.90;;;;;;5011559;28;21172;-71
2022/04/07 05:21:26;;;;;;;0.40;0.20;;;10.80;99.90;;;;;;5012979;28;20745;-70
2022/04/07 05:23:52;;;;;;;0.40;0.20;;;10.80;99.90;;;;;;5012026;28;20388;-71
2022/04/07 05:26:18;;;;;;;0.40;0.20;;;10.70;99.90;;;;;;5013470;28;20388;-74
2022/04/07 05:28:44;;;;;;;0.40;0.20;;;10.70;99.90;;;;;;5013157;28;20400;-72
2022/04/07 05:31:10;;;;;;;0.40;0.20;;;10.80;99.90;;;;;;5012095;28;20389;-71
2022/04/07 05:33:36;;;;;;;0.40;0.20;;;10.80;99.90;;;;;;5011970;28;20741;-74
2022/04/07 05:36:02;;;;;;;0.40;0.20;;;10.90;99.90;;;;;;5016756;28;20391;-71
2022/04/07 05:38:28;;;;;;;0.40;0.20;;;10.90;99.90;;;;;;4996746;28;20809;-73
2022/04/07 05:40:54;;;;;;;0.40;0.20;;;11.00;99.90;;;;;;5013097;28;20420;-75
2022/04/07 05:43:20;;;;;;;0.40;0.20;;;11.00;99.90;;;;;;5012785;28;20881;-72
2022/04/07 05:45:45;;;;;;;0.40;0.20;;;11.00;99.90;;;;;;5012889;28;20405;-71
2022/04/07 05:48:14;;;;;;;0.40;0.20;;;11.10;99.90;;;;;;5012571;28;20427;-72
2022/04/07 05:50:40;;;;;;;0.40;0.20;;;11.10;99.90;;;;;;5013052;28;20413;-72
2022/04/07 05:53:07;;;;;;;0.40;0.30;;;11.10;99.90;;;;;;5012432;28;20475;-74
2022/04/07 05:55:36;;;;;;;0.40;0.40;;;11.10;99.90;;;;;;5012552;28;20393;-72
2022/04/07 05:58:03;;;;;;;0.40;0.20;;;11.20;99.90;;;;;;5013126;28;20443;-72
2022/04/07 06:00:29;;;;;;;0.40;0.20;;;11.20;99.90;;;;;;5012107;28;20544;-73
2022/04/07 06:02:55;;;;;;;0.40;0.28;;;11.20;99.90;;;;;;5013075;28;20837;-71
2022/04/07 06:05:20;;;;;;;0.40;0.30;;;11.20;99.90;;;;;;5011580;28;20746;-71
2022/04/07 06:07:46;;;;;;;0.40;0.20;;;11.30;99.90;;;;;;5011282;28;20901;-72
2022/04/07 06:10:13;;;;;;;0.40;0.20;;;11.50;99.90;;;;;;5021433;28;20476;-72
2022/04/07 06:12:42;;;;;;;0.40;0.20;;;11.50;99.90;;;;;;5031920;28;20445;-74
2022/04/07 06:15:09;;;;;;;0.40;0.20;;;11.50;99.90;;;;;;5032425;28;20846;-72
2022/04/07 06:17:38;;;;;;;0.40;0.20;;;11.60;99.90;;;;;;5030422;28;20890;-71
2022/04/07 06:20:06;;;;;;;0.40;0.20;;;11.60;99.90;;;;;;5032130;28;20986;-72
2022/04/07 06:22:32;;;;;;;0.40;0.20;;;11.60;99.90;;;;;;5031694;28;20403;-73
2022/04/07 06:24:58;;;;;;;0.40;0.20;;;11.70;99.90;;;;;;5032328;28;20406;-70
2022/04/07 06:27:42;;;;;;;0.40;0.20;;;11.80;99.90;;;;;;5032383;28;20410;-70
2022/04/07 06:30:10;;;;;;;0.40;0.40;;;11.80;99.90;;;;;;5032411;28;20450;-70
2022/04/07 06:32:37;;;;;;;0.40;0.30;;;11.70;99.90;;;;;;5031209;28;20879;-71
2022/04/07 06:35:03;;;;;;;0.40;0.20;;;11.70;99.90;;;;;;5031832;28;20867;-70
2022/04/07 06:37:29;;;;;;;0.40;0.20;;;11.70;99.90;;;;;;5031423;28;20411;-72
2022/04/07 06:40:01;;;;;;;0.40;0.20;;;11.70;99.90;;;;;;5030981;28;20482;-72
2022/04/07 06:42:27;;;;;;;0.40;0.30;;;11.70;99.90;;;;;;5031963;28;20383;-70
2022/04/07 06:44:55;;;;;;;0.40;0.20;;;11.70;99.90;;;;;;5030886;28;20878;-72
2022/04/07 06:47:24;;;;;;;0.40;0.20;;;11.70;99.90;;;;;;5031750;28;20875;-69
2022/04/07 06:49:53;;;;;;;0.90;0.90;;;11.70;99.90;;;;;;5030895;28;20437;-71
2022/04/07 06:52:19;;;;;;;0.40;0.20;;;11.80;99.90;;;;;;5031908;28;20379;-72
2022/04/07 06:54:45;;;;;;;0.40;0.20;;;11.80;99.90;;;;;;5031092;28;20458;-72
2022/04/07 06:57:11;;;;;;;0.40;0.30;;;11.80;99.90;;;;;;5032020;28;20376;-71
2022/04/07 06:59:37;;;;;;;0.40;0.30;;;11.90;99.90;;;;;;5031250;28;20604;-70
2022/04/07 07:02:03;;;;;;;0.40;0.20;;;11.90;99.90;;;;;;5030789;28;20473;-71
2022/04/07 07:04:32;;;;;;;0.40;0.20;;;11.90;99.90;;;;;;5031367;28;20403;-71
2022/04/07 07:06:58;;;;;;;0.40;0.20;;;11.90;99.90;;;;;;5030665;28;20403;-71
2022/04/07 07:09:25;;;;;;;0.40;0.20;;;11.90;99.90;;;;;;5028761;28;20444;-71
2022/04/07 07:11:51;;;;;;;0.40;0.20;;;12.00;99.90;;;;;;5011776;28;20393;-70
2022/04/07 07:14:17;;;;;;;0.40;0.27;;;12.00;99.90;;;;;;5010930;28;20442;-71
2022/04/07 07:16:43;;;;;;;0.40;0.20;;;11.90;99.90;;;;;;5010756;28;20381;-71
2022/04/07 07:19:10;;;;;;;0.40;0.30;;;12.00;99.90;;;;;;5009669;28;20532;-71
2022/04/07 07:21:36;;;;;;;0.40;0.20;;;12.00;99.90;;;;;;5011774;28;20430;-70
2022/04/07 07:24:02;;;;;;;0.40;0.20;;;11.90;99.90;;;;;;5010999;28;20430;-72
2022/04/07 07:26:28;;;;;;;0.40;0.20;;;12.00;99.90;;;;;;5011317;28;20476;-70
2022/04/07 07:28:54;;;;;;;0.40;0.20;;;12.00;99.90;;;;;;5011459;28;20474;-72
2022/04/07 07:31:19;;;;;;;0.40;0.20;;;12.00;99.90;;;;;;5010557;28;20911;-72
2022/04/07 07:33:45;;;;;;;0.40;0.20;;;12.00;99.90;;;;;;5011218;28;20870;-71
2022/04/07 07:36:11;;;;;;;0.40;0.20;;;12.00;99.90;;;;;;5008775;28;20754;-74
2022/04/07 07:38:37;;;;;;;0.40;0.20;;;12.00;99.90;;;;;;5011397;28;20882;-71
2022/04/07 07:41:02;;;;;;;0.40;0.40;;;12.00;99.90;;;;;;5009617;28;20433;-72
2022/04/07 07:43:28;;;;;;;0.40;0.20;;;12.00;99.90;;;;;;5010510;28;20396;-72
2022/04/07 07:45:54;;;;;;;0.40;0.20;;;12.00;99.90;;;;;;5011021;28;20387;-72
2022/04/07 07:48:38;;;;;;;0.40;0.20;;;12.00;99.90;;;;;;5010464;28;20460;-73
2022/04/07 07:51:04;;;;;;;0.40;0.20;;;11.90;99.90;;;;;;5011116;28;20417;-72
2022/04/07 07:53:29;;;;;;;0.40;0.20;;;11.90;99.90;;;;;;5010063;28;20413;-72
2022/04/07 07:55:55;;;;;;;0.40;0.20;;;11.90;99.90;;;;;;5010683;28;20415;-73
2022/04/07 07:58:23;;;;;;;0.40;0.20;;;12.00;99.90;;;;;;5010809;28;20794;-72
2022/04/07 08:00:49;;;;;;;0.40;0.20;;;12.00;99.90;;;;;;5009456;28;20405;-72
2022/04/07 08:03:15;;;;;;;0.40;0.20;;;12.10;99.90;;;;;;5009647;28;20451;-73
2022/04/07 08:05:41;;;;;;;0.40;0.25;;;12.10;99.90;;;;;;5010326;28;20858;-72
2022/04/07 08:08:07;;;;;;;0.40;0.20;;;12.10;99.90;;;;;;5009777;28;20427;-72
2022/04/07 08:10:33;;;;;;;0.40;0.20;;;12.00;99.90;;;;;;5022406;28;20771;-74
2022/04/07 08:13:00;;;;;;;0.40;0.20;;;12.10;99.90;;;;;;5030740;28;20391;-72
2022/04/07 08:15:27;;;;;;;0.40;0.20;;;12.10;99.90;;;;;;5030657;28;20751;-72
2022/04/07 08:17:52;;;;;;;0.80;0.80;;;12.10;99.90;;;;;;5029595;28;20874;-73
2022/04/07 08:20:18;;;;;;;0.40;0.20;;;12.20;99.90;;;;;;5030368;28;20383;-71
2022/04/07 08:22:44;;;;;;;0.40;0.20;;;12.20;99.90;;;;;;5029936;28;20387;-73
2022/04/07 08:25:10;;;;;;;0.40;0.20;;;12.20;99.90;;;;;;5030621;28;20433;-72
2022/04/07 08:27:35;;;;;;;0.40;0.20;;;12.20;99.90;;;;;;5030893;28;20855;-73
2022/04/07 08:30:02;;;;;;;0.40;0.20;;;12.40;99.90;;;;;;5033907;28;20409;-71
2022/04/07 08:32:31;;;;;;;0.40;0.20;;;12.40;99.90;;;;;;5034484;28;20378;-72
2022/04/07 08:34:58;;;;;;;0.40;0.20;;;12.50;99.90;;;;;;5033698;28;20878;-72
2022/04/07 08:37:24;;;;;;;0.40;0.20;;;12.50;99.90;;;;;;5033938;28;20405;-71
2022/04/07 08:39:51;;;;;;;0.40;0.20;;;12.50;99.90;;;;;;5034426;28;20405;-72
2022/04/07 08:42:25;;;;;;;0.40;0.30;;;12.50;99.90;;;;;;5049095;28;20379;-71
2022/04/07 08:44:51;;;;;;;0.40;0.20;;;12.60;99.90;;;;;;5048917;28;20383;-71
2022/04/07 08:47:20;;;;;;;0.40;0.20;;;12.80;99.90;;;;;;5032983;28;20387;-71
2022/04/07 08:49:48;;;;;;;0.40;0.20;;;12.70;99.90;;;;;;5034398;28;20807;-72
2022/04/07 08:52:15;;;;;;;0.40;0.20;;;12.60;99.90;;;;;;5033476;28;20387;-72
2022/04/07 08:54:43;;;;;;;0.40;0.20;;;12.50;99.90;;;;;;5033985;28;20881;-72
2022/04/07 08:57:09;;;;;;;0.40;0.20;;;12.40;99.90;;;;;;5033143;28;20368;-72
2022/04/07 08:59:35;;;;;;;0.40;0.20;;;12.40;99.90;;;;;;5033754;28;20450;-73
2022/04/07 09:02:05;;;;;;;0.40;0.20;;;12.40;99.90;;;;;;5032632;28;20422;-72
2022/04/07 09:04:36;;;;;;;0.40;0.20;;;12.40;99.90;;;;;;5033284;28;20473;-70
2022/04/07 09:07:02;;;;;;;0.40;0.20;;;12.40;99.90;;;;;;5033765;28;20387;-71
2022/04/07 09:09:31;;;;;;;0.40;0.20;;;12.50;99.90;;;;;;5029505;28;20455;-71
2022/04/07 09:11:58;;;;;;;0.40;0.20;;;12.40;99.90;;;;;;5013537;28;20454;-73
2022/04/07 09:14:24;;;;;;;0.40;0.20;;;12.30;99.90;;;;;;5013044;28;20385;-73
2022/04/07 09:16:55;;;;;;;0.40;0.20;;;11.90;99.90;;;;;;5013826;28;20426;-72
2022/04/07 09:19:22;;;;;;;1.90;0.50;;;11.70;99.90;;;;;;5013271;28;20400;-76
2022/04/07 09:21:48;;;;;;;0.40;0.20;;;11.70;99.90;;;;;;5013720;28;20789;-72
2022/04/07 09:24:15;;;;;;;0.50;0.50;;;11.50;99.90;;;;;;5013206;28;20475;-72
2022/04/07 09:26:43;;;;;;;0.40;0.20;;;11.50;99.90;;;;;;5012776;28;20777;-75
2022/04/07 09:29:14;;;;;;;0.40;0.20;;;11.70;99.90;;;;;;5013633;28;20409;-72
2022/04/07 09:31:51;;;;;;;0.40;0.20;;;11.80;99.90;;;;;;5012532;28;20892;-72
2022/04/07 09:34:29;;;;;;;0.40;0.20;;;12.00;99.90;;;;;;5012606;28;20750;-72
2022/04/07 09:37:08;;;;;;;0.40;0.20;;;12.20;99.90;;;;;;5013486;28;20463;-72
2022/04/07 09:39:39;;;;;;;0.40;0.20;;;12.30;99.90;;;;;;5012378;28;20389;-73
2022/04/07 09:42:25;;;;;;;0.40;0.20;;;12.30;99.90;;;;;;5013481;28;20377;-74
2022/04/07 09:45:01;;;;;;;0.40;0.20;;;12.40;99.90;;;;;;5011389;28;20415;-73
2022/04/07 09:47:46;;;;;;;0.40;0.20;;;12.50;99.90;;;;;;5013514;28;20741;-73
2022/04/07 09:50:39;;;;;;;0.40;0.20;;;12.50;99.90;;;;;;5012057;28;20405;-72
2022/04/07 09:53:06;;;;;;;0.40;0.20;;;12.40;99.90;;;;;;5011112;28;20408;-72
2022/04/07 09:55:43;;;;;;;0.50;0.50;;;12.50;99.90;;;;;;5010297;28;20447;-73
2022/04/07 09:58:12;;;;;;;0.40;0.30;;;12.50;99.90;;;;;;5012434;28;20408;-72
2022/04/07 10:00:39;;;;;;;0.40;0.20;;;12.50;99.90;;;;;;5008867;28;20393;-73
2022/04/07 10:03:05;;;;;;;0.40;0.20;;;12.50;99.90;;;;;;5013422;28;20389;-73
2022/04/07 10:05:32;;;;;;;0.40;0.20;;;12.60;99.90;;;;;;5013399;28;20381;-73
2022/04/07 10:07:58;;;;;;;0.40;0.20;;;12.60;99.90;;;;;;5010851;28;20397;-74
2022/04/07 10:10:25;;;;;;;0.40;0.20;;;12.50;99.90;;;;;;5010955;28;20423;-75
2022/04/07 10:12:51;;;;;;;0.40;0.20;;;12.30;99.90;;;;;;5008236;28;20748;-73
2022/04/07 10:15:18;;;;;;;0.40;0.20;;;12.30;99.90;;;;;;5010627;28;21138;-73
2022/04/07 10:17:45;;;;;;;0.40;0.20;;;12.40;99.90;;;;;;5011892;28;20419;-73
2022/04/07 10:20:21;;;;;;;0.40;0.20;;;12.30;99.90;;;;;;5011386;28;20393;-73
2022/04/07 10:23:23;;;;;;;0.40;0.20;;;12.40;99.90;;;;;;5010658;28;20759;-73
2022/04/07 10:25:50;;;;;;;0.40;0.20;;;12.60;99.90;;;;;;5022389;28;20416;-73
2022/04/07 10:28:17;;;;;;;0.40;0.20;;;12.70;99.90;;;;;;5011081;28;20380;-73
2022/04/07 10:30:48;;;;;;;0.40;0.20;;;12.70;99.90;;;;;;5009802;28;20423;-72
2022/04/07 10:33:33;;;;;;;0.40;0.20;;;12.70;99.90;;;;;;5010425;28;20401;-73
2022/04/07 10:36:00;;;;;;;0.40;0.20;;;12.80;99.90;;;;;;5007750;28;20474;-72
2022/04/07 10:38:37;;;;;;;0.40;0.20;;;12.80;99.90;;;;;;5009914;28;20416;-73
2022/04/07 10:41:03;;;;;;;0.40;0.20;;;12.80;99.90;;;;;;5011254;28;20397;-72
2022/04/07 10:43:29;;;;;;;0.40;0.20;;;12.80;99.90;;;;;;5010412;28;20389;-72
2022/04/07 10:46:15;;;;;;;0.40;0.20;;;12.80;99.90;;;;;;5010800;28;20464;-73
2022/04/07 10:48:48;;;;;;;0.40;0.20;;;12.70;99.90;;;;;;5009129;28;20388;-71
2022/04/07 10:51:14;;;;;;;0.40;0.20;;;12.80;99.90;;;;;;5010216;28;20462;-73
2022/04/07 10:54:03;;;;;;;0.40;0.20;;;12.70;99.90;;;;;;5009794;28;20393;-72
2022/04/07 10:56:36;;;;;;;0.40;0.20;;;12.70;99.90;;;;;;5005672;28;20399;-73
2022/04/07 10:59:14;;;;;;;0.40;0.20;;;12.50;99.90;;;;;;5007763;28;20400;-74
2022/04/07 11:01:42;;;;;;;1.00;0.50;;;12.40;99.90;;;;;;5009976;28;20397;-72
2022/04/07 11:04:17;;;;;;;0.40;0.20;;;12.50;99.90;;;;;;5010935;28;20385;-72
2022/04/07 11:07:09;;;;;;;0.40;0.20;;;12.50;99.90;;;;;;5009619;28;20409;-73
2022/04/07 11:09:53;;;;;;;0.40;0.20;;;12.00;99.90;;;;;;5009732;28;20419;-84
2022/04/07 11:12:25;;;;;;;0.40;0.30;;;11.90;99.90;;;;;;5009812;28;20488;-83
2022/04/07 11:15:03;;;;;;;0.40;0.20;;;11.30;99.90;;;;;;5010547;28;20431;-81
2022/04/07 11:17:35;;;;;;;0.40;0.20;;;11.30;99.90;;;;;;5011350;28;20393;-78
2022/04/07 11:20:18;;;;;;;0.40;0.20;;;11.40;99.90;;;;;;5004220;28;20415;-78
2022/04/07 11:22:48;;;;;;;0.70;0.70;;;11.50;99.90;;;;;;5010297;28;20407;-77
2022/04/07 11:25:15;;;;;;;0.40;0.20;;;11.60;99.90;;;;;;5011101;28;20400;-74
2022/04/07 11:27:45;;;;;;;0.40;0.20;;;11.60;99.90;;;;;;5009330;28;20463;-80
2022/04/07 11:30:14;;;;;;;0.40;0.20;;;11.80;99.90;;;;;;5007037;28;20437;-76
2022/04/07 11:33:17;;;;;;;0.40;0.20;;;11.70;99.90;;;;;;5010419;28;20385;-78
2022/04/07 11:35:43;;;;;;;0.40;0.20;;;11.90;99.90;;;;;;5007860;28;20391;-73
2022/04/07 11:38:09;;;;;;;0.40;0.20;;;12.10;99.90;;;;;;5009592;28;20567;-75
2022/04/07 11:40:35;;;;;;;0.40;0.20;;;12.20;99.90;;;;;;5007863;28;20403;-76
2022/04/07 11:43:02;;;;;;;0.40;0.20;;;12.30;99.90;;;;;;5010434;28;20461;-73
2022/04/07 11:45:32;;;;;;;0.40;0.20;;;12.30;99.90;;;;;;5026418;28;20393;-79
2022/04/07 11:47:57;;;;;;;0.40;0.20;;;12.40;99.90;;;;;;5010453;28;20389;-74
2022/04/07 11:50:23;;;;;;;0.40;0.20;;;12.40;99.90;;;;;;5011120;28;20408;-74
2022/04/07 11:52:50;;;;;;;0.40;0.20;;;12.40;99.90;;;;;;5026265;28;20393;-74
2022/04/07 11:55:29;;;;;;;0.40;0.20;;;12.40;99.90;;;;;;5010322;28;20508;-74
2022/04/07 11:58:01;;;;;;;0.40;0.20;;;12.40;99.90;;;;;;5025757;28;20789;-76
2022/04/07 12:00:30;;;;;;;0.40;0.20;;;12.40;99.90;;;;;;5009329;28;20403;-77
2022/04/07 12:03:05;;;;;;;0.40;0.30;;;12.40;99.90;;;;;;5010282;28;20444;-74
2022/04/07 12:05:31;;;;;;;0.40;0.20;;;12.60;99.90;;;;;;5011051;28;20458;-71
2022/04/07 12:08:12;;;;;;;0.40;0.20;;;12.60;99.90;;;;;;5011179;28;20785;-73
2022/04/07 12:10:39;;;;;;;0.40;0.20;;;12.60;99.90;;;;;;5010884;28;20467;-74
2022/04/07 12:13:06;;;;;;;0.40;0.20;;;12.60;99.90;;;;;;5010345;28;20393;-75
2022/04/07 12:15:34;;;;;;;0.40;0.20;;;12.70;99.90;;;;;;5025271;28;20483;-74
2022/04/07 12:18:08;;;;;;;0.40;0.20;;;12.80;99.90;;;;;;5007795;28;20399;-74
2022/04/07 12:20:38;;;;;;;0.40;0.20;;;12.80;99.90;;;;;;5009767;28;20380;-75
2022/04/07 12:23:14;;;;;;;0.40;0.20;;;12.80;99.90;;;;;;5010961;28;20396;-74
2022/04/07 12:25:43;;;;;;;0.40;0.20;;;12.90;99.90;;;;;;5010856;28;20864;-75
2022/04/07 12:28:14;;;;;;;0.40;0.20;;;12.90;99.90;;;;;;5010165;28;20385;-73
2022/04/07 12:30:51;;;;;;;0.40;0.20;;;12.90;99.90;;;;;;5009645;28;20407;-75
2022/04/07 12:33:37;;;;;;;0.40;0.20;;;12.80;99.90;;;;;;5010088;28;20413;-75
2022/04/07 12:36:03;;;;;;;0.40;0.30;;;12.90;99.90;;;;;;5008850;28;20393;-78
2022/04/07 12:38:28;;;;;;;0.40;0.20;;;13.00;99.90;;;;;;5017688;28;20465;-76
2022/04/07 12:40:54;;;;;;;0.40;0.20;;;13.10;99.90;;;;;;5018960;28;20389;-74
2022/04/07 12:43:40;;;;;;;0.40;0.30;;;13.20;99.90;;;;;;5018867;28;20929;-75
2022/04/07 12:46:08;;;;;;;0.40;0.20;;;13.20;99.90;;;;;;5016859;28;20733;-75
2022/04/07 12:48:35;;;;;;;0.40;0.20;;;13.20;99.90;;;;;;5020516;28;20433;-75
2022/04/07 12:51:21;;;;;;;0.40;0.20;;;13.30;99.90;;;;;;5018281;28;20403;-75
2022/04/07 12:53:47;;;;;;;0.40;0.20;;;13.40;99.90;;;;;;5008573;28;20444;-74